sensor_id;sensor_type;location;lat;lon;timestamp;pressure;altitude;pressure_sealevel;temperature;humidity
2188;BME280;1100;52.014;8.540;2022-11-30T00:00:35;100642.66;;;5.58;89.83
2188;BME280;1100;52.014;8.540;2022-11-30T00:03:01;100643.81;;;5.57;89.59
2188;BME280;1100;52.014;8.540;2022-11-30T00:05:26;100646.56;;;5.57;89.86
2188;BME280;1100;52.014;8.540;2022-11-30T00:07:52;100648.16;;;5.58;89.78
2188;BME280;1100;52.014;8.540;2022-11-30T00:10:19;100639.47;;;5.56;89.47
2188;BME280;1100;52.014;8.540;2022-11-30T00:12:44;100648.13;;;5.55;89.50
2188;BME280;1100;52.014;8.540;2022-11-30T00:15:11;100646.97;;;5.52;89.66
2188;BME280;1100;52.014;8.540;2022-11-30T00:17:45;100638.66;;;5.48;89.73
2188;BME280;1100;52.014;8.540;2022-11-30T00:20:14;100635.50;;;5.46;89.67
2188;BME280;1100;52.014;8.540;2022-11-30T00:22:40;100638.66;;;5.45;89.76
2188;BME280;1100;52.014;8.540;2022-11-30T00:25:06;100634.34;;;5.44;89.49
2188;BME280;1100;52.014;8.540;2022-11-30T00:27:32;100638.28;;;5.43;89.47
2188;BME280;1100;52.014;8.540;2022-11-30T00:29:59;100645.34;;;5.44;89.73
2188;BME280;1100;52.014;8.540;2022-11-30T00:32:26;100641.81;;;5.40;89.35
2188;BME280;1100;52.014;8.540;2022-11-30T00:34:51;100641.81;;;5.40;89.57
2188;BME280;1100;52.014;8.540;2022-11-30T00:37:17;100635.47;;;5.35;89.75
2188;BME280;1100;52.014;8.540;2022-11-30T00:39:42;100646.50;;;5.35;89.65
2188;BME280;1100;52.014;8.540;2022-11-30T00:42:08;100641.78;;;5.32;89.45
2188;BME280;1100;52.014;8.540;2022-11-30T00:44:33;100652.81;;;5.32;89.42
2188;BME280;1100;52.014;8.540;2022-11-30T00:46:58;100656.75;;;5.31;89.68
2188;BME280;1100;52.014;8.540;2022-11-30T00:49:23;100650.03;;;5.32;89.52
2188;BME280;1100;52.014;8.540;2022-11-30T00:51:49;100648.88;;;5.30;89.44
2188;BME280;1100;52.014;8.540;2022-11-30T00:54:14;100651.22;;;5.31;89.77
2188;BME280;1100;52.014;8.540;2022-11-30T00:56:39;100648.88;;;5.30;89.40
2188;BME280;1100;52.014;8.540;2022-11-30T00:59:05;100651.22;;;5.28;89.43
2188;BME280;1100;52.014;8.540;2022-11-30T01:01:30;100655.16;;;5.27;89.50
2188;BME280;1100;52.014;8.540;2022-11-30T01:03:56;100652.00;;;5.24;89.71
2188;BME280;1100;52.014;8.540;2022-11-30T01:06:21;100646.47;;;5.24;89.59
2188;BME280;1100;52.014;8.540;2022-11-30T01:08:47;100654.75;;;5.24;89.49
2188;BME280;1100;52.014;8.540;2022-11-30T01:11:16;100649.63;;;5.23;89.45
2188;BME280;1100;52.014;8.540;2022-11-30T01:13:42;100641.75;;;5.21;89.69
2188;BME280;1100;52.014;8.540;2022-11-30T01:16:13;100643.31;;;5.22;89.35
2188;BME280;1100;52.014;8.540;2022-11-30T01:18:40;100641.75;;;5.21;89.53
2188;BME280;1100;52.014;8.540;2022-11-30T01:21:11;100642.53;;;5.22;89.62
2188;BME280;1100;52.014;8.540;2022-11-30T01:23:38;100641.31;;;5.19;89.42
2188;BME280;1100;52.014;8.540;2022-11-30T01:26:03;100646.84;;;5.16;89.59
2188;BME280;1100;52.014;8.540;2022-11-30T01:28:29;100646.03;;;5.15;89.66
2188;BME280;1100;52.014;8.540;2022-11-30T01:30:58;100650.75;;;5.15;89.40
2188;BME280;1100;52.014;8.540;2022-11-30T01:33:25;100655.88;;;5.13;89.69
2188;BME280;1100;52.014;8.540;2022-11-30T01:36:14;100655.88;;;5.13;89.74
2188;BME280;1100;52.014;8.540;2022-11-30T01:38:43;100657.84;;;5.12;89.49
2188;BME280;1100;52.014;8.540;2022-11-30T01:41:11;100654.69;;;5.10;89.56
2188;BME280;1100;52.014;8.540;2022-11-30T01:43:46;100661.38;;;5.09;89.56
2188;BME280;1100;52.014;8.540;2022-11-30T01:46:41;100660.19;;;5.10;89.58
2188;BME280;1100;52.014;8.540;2022-11-30T01:51:40;100670.84;;;5.08;89.70
2188;BME280;1100;52.014;8.540;2022-11-30T01:54:08;100664.53;;;5.07;89.65
2188;BME280;1100;52.014;8.540;2022-11-30T01:56:36;100667.66;;;5.06;89.33
2188;BME280;1100;52.014;8.540;2022-11-30T01:59:01;100668.47;;;5.06;89.71
2188;BME280;1100;52.014;8.540;2022-11-30T02:01:27;100668.06;;;5.04;89.71
2188;BME280;1100;52.014;8.540;2022-11-30T02:03:58;100666.06;;;5.01;89.45
2188;BME280;1100;52.014;8.540;2022-11-30T02:06:27;100671.56;;;5.01;89.43
2188;BME280;1100;52.014;8.540;2022-11-30T02:08:54;100671.56;;;5.01;89.59
2188;BME280;1100;52.014;8.540;2022-11-30T02:11:19;100672.34;;;4.98;89.25
2188;BME280;1100;52.014;8.540;2022-11-30T02:24:49;100668.41;;;4.95;89.63
2188;BME280;1100;52.014;8.540;2022-11-30T02:30:17;100666.81;;;4.91;89.45
2188;BME280;1100;52.014;8.540;2022-11-30T02:32:50;100668.38;;;4.92;89.80
2188;BME280;1100;52.014;8.540;2022-11-30T02:35:21;100664.44;;;4.89;89.42
2188;BME280;1100;52.014;8.540;2022-11-30T02:37:50;100665.22;;;4.90;89.71
2188;BME280;1100;52.014;8.540;2022-11-30T02:40:17;100667.19;;;4.89;89.54
2188;BME280;1100;52.014;8.540;2022-11-30T02:42:43;100664.03;;;4.87;89.66
2188;BME280;1100;52.014;8.540;2022-11-30T02:45:09;100667.19;;;4.89;89.72
2188;BME280;1100;52.014;8.540;2022-11-30T02:47:36;100666.81;;;4.91;89.91
2188;BME280;1100;52.014;8.540;2022-11-30T02:50:13;100661.69;;;4.89;89.52
2188;BME280;1100;52.014;8.540;2022-11-30T02:52:39;100664.03;;;4.87;89.24
2188;BME280;1100;52.014;8.540;2022-11-30T02:55:10;100661.25;;;4.83;89.37
2188;BME280;1100;52.014;8.540;2022-11-30T02:57:36;100668.72;;;4.79;89.66
2188;BME280;1100;52.014;8.540;2022-11-30T03:00:05;100662.78;;;4.77;89.37
2188;BME280;1100;52.014;8.540;2022-11-30T03:02:31;100666.72;;;4.76;89.79
2188;BME280;1100;52.014;8.540;2022-11-30T03:04:57;100664.78;;;4.77;89.40
2188;BME280;1100;52.014;8.540;2022-11-30T03:07:22;100676.19;;;4.79;89.48
2188;BME280;1100;52.014;8.540;2022-11-30T03:09:48;100671.47;;;4.79;89.70
2188;BME280;1100;52.014;8.540;2022-11-30T03:12:13;100669.50;;;4.83;89.87
2188;BME280;1100;52.014;8.540;2022-11-30T03:14:38;100673.06;;;4.84;89.85
2188;BME280;1100;52.014;8.540;2022-11-30T03:17:03;100673.47;;;4.86;89.79
2188;BME280;1100;52.014;8.540;2022-11-30T03:19:31;100673.47;;;4.86;89.43
2188;BME280;1100;52.014;8.540;2022-11-30T03:21:56;100677.38;;;4.85;89.71
2188;BME280;1100;52.014;8.540;2022-11-30T03:24:22;100685.66;;;4.85;89.46
2188;BME280;1100;52.014;8.540;2022-11-30T03:26:47;100680.94;;;4.85;89.54
2188;BME280;1100;52.014;8.540;2022-11-30T03:29:12;100676.63;;;4.84;89.31
2188;BME280;1100;52.014;8.540;2022-11-30T03:31:38;100680.16;;;4.81;89.49
2188;BME280;1100;52.014;8.540;2022-11-30T03:34:03;100680.91;;;4.82;89.63
2188;BME280;1100;52.014;8.540;2022-11-30T03:36:28;100668.72;;;4.79;89.54
2188;BME280;1100;52.014;8.540;2022-11-30T03:38:54;100678.94;;;4.79;89.88
2188;BME280;1100;52.014;8.540;2022-11-30T03:41:19;100676.94;;;4.76;89.70
2188;BME280;1100;52.014;8.540;2022-11-30T03:43:45;100684.44;;;4.75;89.51
2188;BME280;1100;52.014;8.540;2022-11-30T03:46:12;100685.59;;;4.74;89.87
2188;BME280;1100;52.014;8.540;2022-11-30T03:48:37;100681.69;;;4.75;89.80
2188;BME280;1100;52.014;8.540;2022-11-30T03:51:05;100690.34;;;4.73;89.82
2188;BME280;1100;52.014;8.540;2022-11-30T03:53:31;100690.34;;;4.73;89.68
2188;BME280;1100;52.014;8.540;2022-11-30T03:55:59;100681.28;;;4.73;89.86
2188;BME280;1100;52.014;8.540;2022-11-30T03:58:26;100677.72;;;4.72;89.88
2188;BME280;1100;52.014;8.540;2022-11-30T04:01:03;100681.66;;;4.71;89.89
2188;BME280;1100;52.014;8.540;2022-11-30T04:03:29;100687.97;;;4.72;89.54
2188;BME280;1100;52.014;8.540;2022-11-30T04:05:56;100685.59;;;4.70;89.70
2188;BME280;1100;52.014;8.540;2022-11-30T04:08:21;100684.00;;;4.69;89.43
2188;BME280;1100;52.014;8.540;2022-11-30T04:10:50;100684.00;;;4.66;89.70
2188;BME280;1100;52.014;8.540;2022-11-30T04:13:16;100692.63;;;4.68;89.94
2188;BME280;1100;52.014;8.540;2022-11-30T04:15:41;100692.63;;;4.68;89.49
2188;BME280;1100;52.014;8.540;2022-11-30T04:18:07;100694.63;;;4.67;89.86
2188;BME280;1100;52.014;8.540;2022-11-30T04:20:32;100691.88;;;4.67;89.80
2188;BME280;1100;52.014;8.540;2022-11-30T04:22:57;100689.13;;;4.71;89.88
2188;BME280;1100;52.014;8.540;2022-11-30T04:25:23;100687.97;;;4.72;89.56
2188;BME280;1100;52.014;8.540;2022-11-30T04:27:48;100689.53;;;4.73;89.65
2188;BME280;1100;52.014;8.540;2022-11-30T04:30:14;100698.97;;;4.72;89.66
2188;BME280;1100;52.014;8.540;2022-11-30T04:32:39;100695.38;;;4.68;89.79
2188;BME280;1100;52.014;8.540;2022-11-30T04:35:05;100694.22;;;4.69;89.86
2188;BME280;1100;52.014;8.540;2022-11-30T04:37:30;100703.66;;;4.68;89.98
2188;BME280;1100;52.014;8.540;2022-11-30T04:39:55;100697.75;;;4.66;89.50
2188;BME280;1100;52.014;8.540;2022-11-30T04:42:21;100695.78;;;4.63;89.52
2188;BME280;1100;52.014;8.540;2022-11-30T04:44:46;100701.28;;;4.63;89.79
2188;BME280;1100;52.014;8.540;2022-11-30T04:47:11;100701.66;;;4.65;89.98
2188;BME280;1100;52.014;8.540;2022-11-30T04:49:36;100702.09;;;4.67;90.13
2188;BME280;1100;52.014;8.540;2022-11-30T04:52:02;100700.50;;;4.66;89.63
2188;BME280;1100;52.014;8.540;2022-11-30T04:54:27;100701.28;;;4.63;89.62
2188;BME280;1100;52.014;8.540;2022-11-30T04:56:52;100703.22;;;4.62;89.93
2188;BME280;1100;52.014;8.540;2022-11-30T04:59:18;100706.78;;;4.63;89.52
2188;BME280;1100;52.014;8.540;2022-11-30T05:01:43;100698.91;;;4.61;89.65
2188;BME280;1100;52.014;8.540;2022-11-30T05:04:08;100698.50;;;4.59;89.94
2188;BME280;1100;52.014;8.540;2022-11-30T05:06:33;100699.69;;;4.61;89.65
2188;BME280;1100;52.014;8.540;2022-11-30T05:08:59;100707.16;;;4.65;89.67
2188;BME280;1100;52.014;8.540;2022-11-30T05:11:24;100702.84;;;4.64;89.73
2188;BME280;1100;52.014;8.540;2022-11-30T05:13:49;100706.78;;;4.63;89.75
2188;BME280;1100;52.014;8.540;2022-11-30T05:16:15;100708.78;;;4.66;90.01
2188;BME280;1100;52.014;8.540;2022-11-30T05:18:40;100713.47;;;4.65;89.73
2188;BME280;1100;52.014;8.540;2022-11-30T05:21:05;100708.34;;;4.64;89.72
2188;BME280;1100;52.014;8.540;2022-11-30T05:23:30;100713.44;;;4.61;89.78
2188;BME280;1100;52.014;8.540;2022-11-30T05:25:56;100713.44;;;4.61;89.84
2188;BME280;1100;52.014;8.540;2022-11-30T05:28:21;100718.94;;;4.61;89.59
2188;BME280;1100;52.014;8.540;2022-11-30T05:30:46;100713.88;;;4.64;89.97
2188;BME280;1100;52.014;8.540;2022-11-30T05:33:12;100716.22;;;4.65;89.99
2188;BME280;1100;52.014;8.540;2022-11-30T05:35:37;100719.38;;;4.64;89.92
2188;BME280;1100;52.014;8.540;2022-11-30T05:38:03;100733.56;;;4.66;89.92
2188;BME280;1100;52.014;8.540;2022-11-30T05:40:28;100722.53;;;4.66;89.72
2188;BME280;1100;52.014;8.540;2022-11-30T05:42:57;100730.38;;;4.64;90.03
2188;BME280;1100;52.014;8.540;2022-11-30T05:45:24;100724.88;;;4.64;89.93
2188;BME280;1100;52.014;8.540;2022-11-30T05:47:50;100731.19;;;4.68;90.10
2188;BME280;1100;52.014;8.540;2022-11-30T05:50:18;100726.88;;;4.67;89.90
2188;BME280;1100;52.014;8.540;2022-11-30T05:52:44;100735.53;;;4.69;89.33
2188;BME280;1100;52.014;8.540;2022-11-30T05:55:09;100743.38;;;4.67;89.78
2188;BME280;1100;52.014;8.540;2022-11-30T05:57:36;100741.81;;;4.66;89.82
2188;BME280;1100;52.014;8.540;2022-11-30T06:00:03;100732.75;;;4.65;89.99
2188;BME280;1100;52.014;8.540;2022-11-30T06:02:28;100742.97;;;4.65;89.89
2188;BME280;1100;52.014;8.540;2022-11-30T06:04:54;100743.78;;;4.65;90.12
2188;BME280;1100;52.014;8.540;2022-11-30T06:07:19;100744.56;;;4.66;89.99
2188;BME280;1100;52.014;8.540;2022-11-30T06:09:45;100741.41;;;4.64;90.03
2188;BME280;1100;52.014;8.540;2022-11-30T06:12:10;100737.84;;;4.63;90.17
2188;BME280;1100;52.014;8.540;2022-11-30T06:14:35;100740.59;;;4.63;89.98
2188;BME280;1100;52.014;8.540;2022-11-30T06:17:01;100744.13;;;4.60;89.95
2188;BME280;1100;52.014;8.540;2022-11-30T06:19:26;100748.47;;;4.61;90.11
2188;BME280;1100;52.014;8.540;2022-11-30T06:21:51;100738.22;;;4.61;89.91
2188;BME280;1100;52.014;8.540;2022-11-30T06:24:16;100746.09;;;4.59;89.82
2188;BME280;1100;52.014;8.540;2022-11-30T06:26:45;100742.13;;;4.57;90.08
2188;BME280;1100;52.014;8.540;2022-11-30T06:29:10;100750.81;;;4.59;90.15
2188;BME280;1100;52.014;8.540;2022-11-30T06:31:35;100748.44;;;4.57;89.80
2188;BME280;1100;52.014;8.540;2022-11-30T06:34:01;100752.75;;;4.55;89.68
2188;BME280;1100;52.014;8.540;2022-11-30T06:36:26;100753.13;;;4.53;90.02
2188;BME280;1100;52.014;8.540;2022-11-30T06:38:51;100759.03;;;4.55;90.02
2188;BME280;1100;52.014;8.540;2022-11-30T06:41:17;100759.03;;;4.55;90.19
2188;BME280;1100;52.014;8.540;2022-11-30T06:43:43;100760.25;;;4.58;89.95
2188;BME280;1100;52.014;8.540;2022-11-30T06:46:08;100764.53;;;4.55;89.86
2188;BME280;1100;52.014;8.540;2022-11-30T06:48:34;100766.53;;;4.55;89.97
2188;BME280;1100;52.014;8.540;2022-11-30T06:51:00;100763.34;;;4.53;90.03
2188;BME280;1100;52.014;8.540;2022-11-30T06:53:26;100771.59;;;4.53;89.92
2188;BME280;1100;52.014;8.540;2022-11-30T06:55:51;100768.06;;;4.52;89.75
2188;BME280;1100;52.014;8.540;2022-11-30T06:58:17;100770.81;;;4.52;90.03
2188;BME280;1100;52.014;8.540;2022-11-30T07:00:42;100780.66;;;4.53;89.72
2188;BME280;1100;52.014;8.540;2022-11-30T07:03:10;100782.59;;;4.49;90.06
2188;BME280;1100;52.014;8.540;2022-11-30T07:05:43;100782.97;;;4.47;89.95
2188;BME280;1100;52.014;8.540;2022-11-30T07:08:09;100783.75;;;4.48;89.97
2188;BME280;1100;52.014;8.540;2022-11-30T07:10:39;100782.19;;;4.47;90.05
2188;BME280;1100;52.014;8.540;2022-11-30T07:13:08;100784.13;;;4.46;89.82
2188;BME280;1100;52.014;8.540;2022-11-30T07:15:34;100784.13;;;4.46;90.02
2188;BME280;1100;52.014;8.540;2022-11-30T07:17:59;100779.06;;;4.48;89.84
2188;BME280;1100;52.014;8.540;2022-11-30T07:20:25;100780.63;;;4.49;90.23
2188;BME280;1100;52.014;8.540;2022-11-30T07:22:54;100780.25;;;4.51;89.66
2188;BME280;1100;52.014;8.540;2022-11-30T07:25:19;100781.44;;;4.50;90.18
2188;BME280;1100;52.014;8.540;2022-11-30T07:28:20;100786.50;;;4.48;90.02
2188;BME280;1100;52.014;8.540;2022-11-30T07:30:45;100786.50;;;4.48;90.16
2188;BME280;1100;52.014;8.540;2022-11-30T07:33:10;100794.00;;;4.51;90.01
2188;BME280;1100;52.014;8.540;2022-11-30T07:35:36;100797.56;;;4.52;89.96
2188;BME280;1100;52.014;8.540;2022-11-30T07:38:01;100797.19;;;4.53;90.14
2188;BME280;1100;52.014;8.540;2022-11-30T07:40:29;100802.69;;;4.53;90.07
2188;BME280;1100;52.014;8.540;2022-11-30T07:42:55;100794.44;;;4.53;89.76
2188;BME280;1100;52.014;8.540;2022-11-30T07:45:20;100798.34;;;4.52;90.02
2188;BME280;1100;52.014;8.540;2022-11-30T07:47:45;100799.19;;;4.56;90.32
2188;BME280;1100;52.014;8.540;2022-11-30T07:50:11;100802.72;;;4.57;90.05
2188;BME280;1100;52.014;8.540;2022-11-30T07:52:36;100799.56;;;4.58;89.94
2188;BME280;1100;52.014;8.540;2022-11-30T07:55:02;100801.56;;;4.58;90.25
2188;BME280;1100;52.014;8.540;2022-11-30T07:57:27;100807.88;;;4.62;90.05
2188;BME280;1100;52.014;8.540;2022-11-30T07:59:52;100809.06;;;4.65;90.00
2188;BME280;1100;52.014;8.540;2022-11-30T08:02:17;100821.69;;;4.66;90.11
2188;BME280;1100;52.014;8.540;2022-11-30T08:04:43;100813.03;;;4.67;89.88
2188;BME280;1100;52.014;8.540;2022-11-30T08:07:08;100814.19;;;4.66;90.19
2188;BME280;1100;52.014;8.540;2022-11-30T08:09:33;100820.09;;;4.65;90.01
2188;BME280;1100;52.014;8.540;2022-11-30T08:11:59;100817.75;;;4.67;90.27
2188;BME280;1100;52.014;8.540;2022-11-30T08:14:24;100815.00;;;4.67;89.94
2188;BME280;1100;52.014;8.540;2022-11-30T08:16:50;100822.50;;;4.70;90.23
2188;BME280;1100;52.014;8.540;2022-11-30T08:19:15;100812.28;;;4.70;90.13
2188;BME280;1100;52.014;8.540;2022-11-30T08:21:41;100811.09;;;4.71;90.24
2188;BME280;1100;52.014;8.540;2022-11-30T08:24:10;100817.03;;;4.73;89.89
2188;BME280;1100;52.014;8.540;2022-11-30T08:26:35;100823.72;;;4.76;90.15
2188;BME280;1100;52.014;8.540;2022-11-30T08:29:01;100824.91;;;4.79;90.29
2188;BME280;1100;52.014;8.540;2022-11-30T08:31:34;100830.44;;;4.79;89.99
2188;BME280;1100;52.014;8.540;2022-11-30T08:34:03;100829.66;;;4.78;90.11
2188;BME280;1100;52.014;8.540;2022-11-30T08:36:30;100831.22;;;4.79;89.93
2188;BME280;1100;52.014;8.540;2022-11-30T08:38:59;100830.44;;;4.79;90.18
2188;BME280;1100;52.014;8.540;2022-11-30T08:41:25;100835.94;;;4.79;89.99
2188;BME280;1100;52.014;8.540;2022-11-30T08:43:51;100838.72;;;4.82;90.27
2188;BME280;1100;52.014;8.540;2022-11-30T08:46:19;100836.78;;;4.83;90.01
2188;BME280;1100;52.014;8.540;2022-11-30T08:48:46;100848.56;;;4.83;89.80
2188;BME280;1100;52.014;8.540;2022-11-30T08:51:13;100843.44;;;4.82;89.61
2188;BME280;1100;52.014;8.540;2022-11-30T08:53:39;100849.34;;;4.80;89.91
2188;BME280;1100;52.014;8.540;2022-11-30T08:56:08;100844.63;;;4.81;90.14
2188;BME280;1100;52.014;8.540;2022-11-30T08:58:36;100855.25;;;4.82;90.16
2188;BME280;1100;52.014;8.540;2022-11-30T09:01:09;100848.56;;;4.83;90.15
2188;BME280;1100;52.014;8.540;2022-11-30T09:03:36;100852.50;;;4.82;89.98
2188;BME280;1100;52.014;8.540;2022-11-30T09:06:05;100857.59;;;4.80;90.05
2188;BME280;1100;52.014;8.540;2022-11-30T09:08:31;100860.34;;;4.80;90.10
2188;BME280;1100;52.014;8.540;2022-11-30T09:10:58;100859.19;;;4.81;89.79
2188;BME280;1100;52.014;8.540;2022-11-30T09:13:23;100848.56;;;4.83;89.86
2188;BME280;1100;52.014;8.540;2022-11-30T09:15:53;100855.25;;;4.82;90.05
2188;BME280;1100;52.014;8.540;2022-11-30T09:18:19;100860.00;;;4.85;89.70
2188;BME280;1100;52.014;8.540;2022-11-30T09:20:44;100851.75;;;4.85;89.82
2188;BME280;1100;52.014;8.540;2022-11-30T09:23:09;100864.34;;;4.86;90.10
2188;BME280;1100;52.014;8.540;2022-11-30T09:25:34;100863.56;;;4.86;89.80
2188;BME280;1100;52.014;8.540;2022-11-30T09:28:00;100871.84;;;4.90;89.96
2188;BME280;1100;52.014;8.540;2022-11-30T09:30:25;100873.44;;;4.91;89.88
2188;BME280;1100;52.014;8.540;2022-11-30T09:32:50;100873.06;;;4.96;89.93
2188;BME280;1100;52.014;8.540;2022-11-30T09:35:15;100869.16;;;4.97;89.73
2188;BME280;1100;52.014;8.540;2022-11-30T09:37:41;100866.00;;;4.95;89.77
2188;BME280;1100;52.014;8.540;2022-11-30T09:40:07;100877.00;;;4.95;89.99
2188;BME280;1100;52.014;8.540;2022-11-30T09:42:42;100871.50;;;4.95;89.67
2188;BME280;1100;52.014;8.540;2022-11-30T09:45:18;100863.25;;;4.95;90.01
2188;BME280;1100;52.014;8.540;2022-11-30T09:50:32;100866.34;;;4.90;89.91
2188;BME280;1100;52.014;8.540;2022-11-30T09:53:04;100873.06;;;4.92;89.80
2188;BME280;1100;52.014;8.540;2022-11-30T09:55:36;100878.97;;;4.91;90.02
2188;BME280;1100;52.014;8.540;2022-11-30T09:58:04;100875.34;;;4.86;90.04
2188;BME280;1100;52.014;8.540;2022-11-30T10:00:32;100878.88;;;4.83;89.75
2188;BME280;1100;52.014;8.540;2022-11-30T10:03:02;100880.81;;;4.79;89.68
2188;BME280;1100;52.014;8.540;2022-11-30T10:05:48;100876.50;;;4.78;89.87
2188;BME280;1100;52.014;8.540;2022-11-30T10:08:40;100883.16;;;4.77;89.76
2188;BME280;1100;52.014;8.540;2022-11-30T10:11:27;100884.31;;;4.76;89.76
2188;BME280;1100;52.014;8.540;2022-11-30T10:22:39;100880.75;;;4.72;89.93
2188;BME280;1100;52.014;8.540;2022-11-30T10:25:19;100878.75;;;4.69;90.12
2188;BME280;1100;52.014;8.540;2022-11-30T10:27:51;100871.28;;;4.69;90.23
2188;BME280;1100;52.014;8.540;2022-11-30T10:30:22;100877.22;;;4.71;89.72
2188;BME280;1100;52.014;8.540;2022-11-30T10:32:54;100874.06;;;4.73;90.09
2188;BME280;1100;52.014;8.540;2022-11-30T10:41:03;100874.03;;;4.69;89.71
2188;BME280;1100;52.014;8.540;2022-11-30T10:43:47;100881.09;;;4.67;89.94
2188;BME280;1100;52.014;8.540;2022-11-30T10:46:37;100872.00;;;4.63;89.64
2188;BME280;1100;52.014;8.540;2022-11-30T10:49:10;100872.78;;;4.59;89.69
2188;BME280;1100;52.014;8.540;2022-11-30T10:51:38;100874.31;;;4.57;89.85
2188;BME280;1100;52.014;8.540;2022-11-30T10:54:14;100870.78;;;4.56;89.62
2188;BME280;1100;52.014;8.540;2022-11-30T10:56:41;100871.94;;;4.55;89.82
2188;BME280;1100;52.014;8.540;2022-11-30T11:01:40;100870.31;;;4.51;89.81
2188;BME280;1100;52.014;8.540;2022-11-30T11:06:57;100875.81;;;4.47;89.66
2188;BME280;1100;52.014;8.540;2022-11-30T11:09:33;100872.19;;;4.43;89.69
2188;BME280;1100;52.014;8.540;2022-11-30T11:12:19;100871.81;;;4.41;89.87
2188;BME280;1100;52.014;8.540;2022-11-30T11:14:45;100870.56;;;4.38;89.43
2188;BME280;1100;52.014;8.540;2022-11-30T11:19:42;100875.69;;;4.36;89.81
2188;BME280;1100;52.014;8.540;2022-11-30T11:22:28;100874.50;;;4.37;89.69
2188;BME280;1100;52.014;8.540;2022-11-30T11:25:09;100880.44;;;4.39;89.74
2188;BME280;1100;52.014;8.540;2022-11-30T11:27:35;100881.25;;;4.43;90.11
2188;BME280;1100;52.014;8.540;2022-11-30T11:32:29;100877.31;;;4.44;89.86
2188;BME280;1100;52.014;8.540;2022-11-30T11:34:55;100872.63;;;4.45;89.78
2188;BME280;1100;52.014;8.540;2022-11-30T11:37:24;100877.38;;;4.48;89.55
2188;BME280;1100;52.014;8.540;2022-11-30T11:40:02;100881.31;;;4.47;89.83
2188;BME280;1100;52.014;8.540;2022-11-30T11:42:34;100876.94;;;4.46;90.10
2188;BME280;1100;52.014;8.540;2022-11-30T11:45:02;100876.56;;;4.47;89.83
2188;BME280;1100;52.014;8.540;2022-11-30T11:47:57;100876.94;;;4.42;89.58
2188;BME280;1100;52.014;8.540;2022-11-30T11:53:31;100875.72;;;4.40;89.59
2188;BME280;1100;52.014;8.540;2022-11-30T11:56:04;100874.94;;;4.39;89.46
2188;BME280;1100;52.014;8.540;2022-11-30T11:58:48;100878.84;;;4.38;89.90
2188;BME280;1100;52.014;8.540;2022-11-30T12:05:40;100885.53;;;4.37;89.85
2188;BME280;1100;52.014;8.540;2022-11-30T12:10:05;100888.28;;;4.37;89.95
2188;BME280;1100;52.014;8.540;2022-11-30T12:12:37;100887.91;;;4.39;89.77
2188;BME280;1100;52.014;8.540;2022-11-30T12:15:08;100891.03;;;4.37;89.88
2188;BME280;1100;52.014;8.540;2022-11-30T12:17:59;100896.91;;;4.35;90.01
2188;BME280;1100;52.014;8.540;2022-11-30T12:23:15;100901.22;;;4.33;89.84
2188;BME280;1100;52.014;8.540;2022-11-30T12:31:15;100910.22;;;4.30;89.85
2188;BME280;1100;52.014;8.540;2022-11-30T12:33:57;100907.84;;;4.28;89.64
2188;BME280;1100;52.014;8.540;2022-11-30T12:39:34;100904.63;;;4.22;89.63
2188;BME280;1100;52.014;8.540;2022-11-30T12:47:27;100906.91;;;4.17;89.81
2188;BME280;1100;52.014;8.540;2022-11-30T12:50:20;100897.47;;;4.18;89.93
2188;BME280;1100;52.014;8.540;2022-11-30T12:58:35;100903.75;;;4.15;89.89
2188;BME280;1100;52.014;8.540;2022-11-30T13:01:34;100899.84;;;4.16;90.06
2188;BME280;1100;52.014;8.540;2022-11-30T13:07:02;100906.13;;;4.16;89.97
2188;BME280;1100;52.014;8.540;2022-11-30T13:09:36;100903.78;;;4.18;89.92
2188;BME280;1100;52.014;8.540;2022-11-30T13:12:11;100908.91;;;4.20;90.07
2188;BME280;1100;52.014;8.540;2022-11-30T13:14:38;100914.81;;;4.18;89.86
2188;BME280;1100;52.014;8.540;2022-11-30T13:17:06;100912.41;;;4.17;89.75
2188;BME280;1100;52.014;8.540;2022-11-30T13:19:57;100910.84;;;4.16;89.63
2188;BME280;1100;52.014;8.540;2022-11-30T13:22:44;100922.22;;;4.14;89.63
2188;BME280;1100;52.014;8.540;2022-11-30T13:30:54;100917.84;;;4.09;89.54
2188;BME280;1100;52.014;8.540;2022-11-30T13:33:45;100927.63;;;4.07;89.67
2188;BME280;1100;52.014;8.540;2022-11-30T13:38:40;100923.28;;;4.06;90.01
2188;BME280;1100;52.014;8.540;2022-11-30T13:41:07;100926.84;;;4.06;89.69
2188;BME280;1100;52.014;8.540;2022-11-30T13:43:42;100934.34;;;4.09;90.13
2188;BME280;1100;52.014;8.540;2022-11-30T13:46:14;100931.59;;;4.09;89.96
2188;BME280;1100;52.014;8.540;2022-11-30T13:48:43;100926.03;;;4.06;89.93
2188;BME280;1100;52.014;8.540;2022-11-30T13:51:09;100919.38;;;4.07;89.87
2188;BME280;1100;52.014;8.540;2022-11-30T13:53:36;100928.41;;;4.07;89.98
2188;BME280;1100;52.014;8.540;2022-11-30T14:10:28;100931.09;;;4.00;90.03
2188;BME280;1100;52.014;8.540;2022-11-30T14:13:03;100935.00;;;3.99;90.15
2188;BME280;1100;52.014;8.540;2022-11-30T14:24:04;100933.78;;;3.96;89.99
2188;BME280;1100;52.014;8.540;2022-11-30T14:26:38;100940.06;;;3.97;90.08
2188;BME280;1100;52.014;8.540;2022-11-30T14:31:37;100942.09;;;4.00;90.22
2188;BME280;1100;52.014;8.540;2022-11-30T14:34:10;100934.94;;;3.95;89.98
2188;BME280;1100;52.014;8.540;2022-11-30T14:36:50;100940.44;;;3.95;89.91
2188;BME280;1100;52.014;8.540;2022-11-30T14:39:23;100946.75;;;3.96;90.04
2188;BME280;1100;52.014;8.540;2022-11-30T14:41:49;100938.84;;;3.94;90.08
2188;BME280;1100;52.014;8.540;2022-11-30T14:44:14;100941.19;;;3.92;89.76
2188;BME280;1100;52.014;8.540;2022-11-30T14:46:39;100938.81;;;3.91;89.82
2188;BME280;1100;52.014;8.540;2022-11-30T14:49:15;100943.53;;;3.90;89.96
2188;BME280;1100;52.014;8.540;2022-11-30T14:51:54;100951.78;;;3.90;90.18
2188;BME280;1100;52.014;8.540;2022-11-30T15:00:26;100954.84;;;3.85;90.07
2188;BME280;1100;52.014;8.540;2022-11-30T15:02:52;100959.53;;;3.84;89.81
2188;BME280;1100;52.014;8.540;2022-11-30T15:05:23;100959.16;;;3.86;89.84
2188;BME280;1100;52.014;8.540;2022-11-30T15:07:51;100959.16;;;3.86;89.91
2188;BME280;1100;52.014;8.540;2022-11-30T15:10:23;100959.97;;;3.86;90.02
2188;BME280;1100;52.014;8.540;2022-11-30T15:12:50;100952.91;;;3.85;89.94
2188;BME280;1100;52.014;8.540;2022-11-30T15:15:18;100954.84;;;3.85;89.96
2188;BME280;1100;52.014;8.540;2022-11-30T15:18:11;100954.78;;;3.81;89.78
2188;BME280;1100;52.014;8.540;2022-11-30T15:20:42;100952.78;;;3.78;89.90
2188;BME280;1100;52.014;8.540;2022-11-30T15:23:13;100956.69;;;3.77;90.11
2188;BME280;1100;52.014;8.540;2022-11-30T15:25:43;100956.69;;;3.77;89.99
2188;BME280;1100;52.014;8.540;2022-11-30T15:28:13;100960.63;;;3.76;90.16